sensor_id;sensor_type;location;lat;lon;timestamp;P1;durP1;ratioP1;P2;durP2;ratioP2
4616;SDS011;2321;42.704;23.384;2022-10-17T00:00:45;7.57;;;4.77;;
4616;SDS011;2321;42.704;23.384;2022-10-17T00:03:13;8.90;;;5.10;;
4616;SDS011;2321;42.704;23.384;2022-10-17T00:05:40;5.17;;;4.77;;
4616;SDS011;2321;42.704;23.384;2022-10-17T00:08:09;9.03;;;5.03;;
4616;SDS011;2321;42.704;23.384;2022-10-17T00:10:39;5.60;;;5.10;;
4616;SDS011;2321;42.704;23.384;2022-10-17T00:13:06;7.23;;;4.90;;
4616;SDS011;2321;42.704;23.384;2022-10-17T00:15:34;7.80;;;5.83;;
4616;SDS011;2321;42.704;23.384;2022-10-17T00:18:01;9.07;;;5.80;;
4616;SDS011;2321;42.704;23.384;2022-10-17T00:20:28;7.40;;;6.30;;
4616;SDS011;2321;42.704;23.384;2022-10-17T00:22:57;8.03;;;5.83;;
4616;SDS011;2321;42.704;23.384;2022-10-17T00:25:24;26.70;;;7.47;;
4616;SDS011;2321;42.704;23.384;2022-10-17T00:27:53;17.50;;;7.30;;
4616;SDS011;2321;42.704;23.384;2022-10-17T00:30:19;9.03;;;7.27;;
4616;SDS011;2321;42.704;23.384;2022-10-17T00:32:46;10.63;;;6.43;;
4616;SDS011;2321;42.704;23.384;2022-10-17T00:35:13;8.30;;;6.03;;
4616;SDS011;2321;42.704;23.384;2022-10-17T00:37:40;29.63;;;6.50;;
4616;SDS011;2321;42.704;23.384;2022-10-17T00:40:08;12.87;;;8.80;;
4616;SDS011;2321;42.704;23.384;2022-10-17T00:42:36;13.60;;;6.70;;
4616;SDS011;2321;42.704;23.384;2022-10-17T00:45:09;17.03;;;8.67;;
4616;SDS011;2321;42.704;23.384;2022-10-17T00:47:40;21.27;;;6.90;;
4616;SDS011;2321;42.704;23.384;2022-10-17T00:50:10;16.30;;;8.00;;
4616;SDS011;2321;42.704;23.384;2022-10-17T00:52:38;15.20;;;7.23;;
4616;SDS011;2321;42.704;23.384;2022-10-17T00:55:07;8.60;;;6.13;;
4616;SDS011;2321;42.704;23.384;2022-10-17T00:57:37;8.67;;;7.53;;
4616;SDS011;2321;42.704;23.384;2022-10-17T01:00:06;16.20;;;8.30;;
4616;SDS011;2321;42.704;23.384;2022-10-17T01:02:36;14.30;;;6.30;;
4616;SDS011;2321;42.704;23.384;2022-10-17T01:05:03;7.77;;;5.00;;
4616;SDS011;2321;42.704;23.384;2022-10-17T01:07:31;5.33;;;4.33;;
4616;SDS011;2321;42.704;23.384;2022-10-17T01:09:59;6.50;;;5.23;;
4616;SDS011;2321;42.704;23.384;2022-10-17T01:12:27;5.30;;;3.40;;
4616;SDS011;2321;42.704;23.384;2022-10-17T01:15:06;5.03;;;2.87;;
4616;SDS011;2321;42.704;23.384;2022-10-17T01:17:42;4.83;;;4.53;;
4616;SDS011;2321;42.704;23.384;2022-10-17T01:20:28;4.17;;;3.97;;
4616;SDS011;2321;42.704;23.384;2022-10-17T01:23:26;2.80;;;2.60;;
4616;SDS011;2321;42.704;23.384;2022-10-17T01:26:00;9.73;;;3.03;;
4616;SDS011;2321;42.704;23.384;2022-10-17T01:28:49;14.60;;;8.23;;
4616;SDS011;2321;42.704;23.384;2022-10-17T01:31:35;19.90;;;8.00;;
4616;SDS011;2321;42.704;23.384;2022-10-17T01:34:07;4.33;;;3.93;;
4616;SDS011;2321;42.704;23.384;2022-10-17T01:36:41;5.07;;;4.50;;
4616;SDS011;2321;42.704;23.384;2022-10-17T01:39:18;4.20;;;3.30;;
4616;SDS011;2321;42.704;23.384;2022-10-17T01:41:54;5.50;;;5.10;;
4616;SDS011;2321;42.704;23.384;2022-10-17T01:44:27;5.70;;;5.17;;
4616;SDS011;2321;42.704;23.384;2022-10-17T01:47:02;6.20;;;4.00;;
4616;SDS011;2321;42.704;23.384;2022-10-17T01:49:33;3.97;;;3.30;;
4616;SDS011;2321;42.704;23.384;2022-10-17T01:52:03;3.60;;;3.30;;
4616;SDS011;2321;42.704;23.384;2022-10-17T01:54:36;5.80;;;3.13;;
4616;SDS011;2321;42.704;23.384;2022-10-17T01:57:08;4.10;;;3.77;;
4616;SDS011;2321;42.704;23.384;2022-10-17T01:59:39;6.07;;;5.57;;
4616;SDS011;2321;42.704;23.384;2022-10-17T02:02:09;5.97;;;5.50;;
4616;SDS011;2321;42.704;23.384;2022-10-17T02:04:39;8.63;;;5.27;;
4616;SDS011;2321;42.704;23.384;2022-10-17T02:07:07;5.93;;;5.47;;
4616;SDS011;2321;42.704;23.384;2022-10-17T02:09:35;7.20;;;5.47;;
4616;SDS011;2321;42.704;23.384;2022-10-17T02:14:56;4.37;;;3.93;;
4616;SDS011;2321;42.704;23.384;2022-10-17T02:17:37;8.53;;;3.70;;
4616;SDS011;2321;42.704;23.384;2022-10-17T02:20:14;4.67;;;4.27;;
4616;SDS011;2321;42.704;23.384;2022-10-17T02:22:48;3.80;;;3.60;;
4616;SDS011;2321;42.704;23.384;2022-10-17T02:25:23;12.23;;;6.37;;
4616;SDS011;2321;42.704;23.384;2022-10-17T02:27:59;4.53;;;4.07;;
4616;SDS011;2321;42.704;23.384;2022-10-17T02:30:36;7.83;;;2.50;;
4616;SDS011;2321;42.704;23.384;2022-10-17T02:33:09;9.47;;;5.23;;
4616;SDS011;2321;42.704;23.384;2022-10-17T02:35:42;12.73;;;8.77;;
4616;SDS011;2321;42.704;23.384;2022-10-17T02:38:12;4.93;;;4.23;;
4616;SDS011;2321;42.704;23.384;2022-10-17T02:40:40;7.13;;;5.10;;
4616;SDS011;2321;42.704;23.384;2022-10-17T02:43:08;8.13;;;5.00;;
4616;SDS011;2321;42.704;23.384;2022-10-17T02:45:35;4.40;;;4.00;;
4616;SDS011;2321;42.704;23.384;2022-10-17T02:48:04;4.23;;;3.07;;
4616;SDS011;2321;42.704;23.384;2022-10-17T02:50:40;3.70;;;3.37;;
4616;SDS011;2321;42.704;23.384;2022-10-17T02:53:14;2.37;;;2.37;;
4616;SDS011;2321;42.704;23.384;2022-10-17T02:55:47;4.53;;;4.27;;
4616;SDS011;2321;42.704;23.384;2022-10-17T02:58:20;2.83;;;2.60;;
4616;SDS011;2321;42.704;23.384;2022-10-17T03:00:53;5.90;;;3.47;;
4616;SDS011;2321;42.704;23.384;2022-10-17T03:03:21;4.87;;;4.47;;
4616;SDS011;2321;42.704;23.384;2022-10-17T03:05:49;4.53;;;4.13;;
4616;SDS011;2321;42.704;23.384;2022-10-17T03:08:17;9.90;;;3.80;;
4616;SDS011;2321;42.704;23.384;2022-10-17T03:10:44;28.27;;;3.53;;
4616;SDS011;2321;42.704;23.384;2022-10-17T03:13:12;3.37;;;3.07;;
4616;SDS011;2321;42.704;23.384;2022-10-17T03:15:39;9.53;;;5.30;;
4616;SDS011;2321;42.704;23.384;2022-10-17T03:18:06;7.63;;;2.80;;
4616;SDS011;2321;42.704;23.384;2022-10-17T03:20:33;6.40;;;3.60;;
4616;SDS011;2321;42.704;23.384;2022-10-17T03:23:02;6.03;;;4.37;;
4616;SDS011;2321;42.704;23.384;2022-10-17T03:25:29;7.27;;;3.93;;
4616;SDS011;2321;42.704;23.384;2022-10-17T03:27:56;3.13;;;2.93;;
4616;SDS011;2321;42.704;23.384;2022-10-17T03:30:24;7.17;;;3.70;;
4616;SDS011;2321;42.704;23.384;2022-10-17T03:32:51;1.73;;;1.73;;
4616;SDS011;2321;42.704;23.384;2022-10-17T03:35:18;3.43;;;2.83;;
4616;SDS011;2321;42.704;23.384;2022-10-17T03:37:45;5.40;;;3.93;;
4616;SDS011;2321;42.704;23.384;2022-10-17T03:40:13;2.83;;;2.73;;
4616;SDS011;2321;42.704;23.384;2022-10-17T03:42:40;2.20;;;2.10;;
4616;SDS011;2321;42.704;23.384;2022-10-17T03:45:07;3.03;;;1.90;;
4616;SDS011;2321;42.704;23.384;2022-10-17T03:47:35;2.57;;;2.37;;
4616;SDS011;2321;42.704;23.384;2022-10-17T03:50:02;2.43;;;2.33;;
4616;SDS011;2321;42.704;23.384;2022-10-17T03:52:30;3.43;;;3.00;;
4616;SDS011;2321;42.704;23.384;2022-10-17T03:54:56;5.67;;;4.90;;
4616;SDS011;2321;42.704;23.384;2022-10-17T03:57:25;9.20;;;3.53;;
4616;SDS011;2321;42.704;23.384;2022-10-17T03:59:52;9.33;;;2.90;;
4616;SDS011;2321;42.704;23.384;2022-10-17T04:02:19;2.10;;;2.00;;
4616;SDS011;2321;42.704;23.384;2022-10-17T04:04:45;4.53;;;3.47;;
4616;SDS011;2321;42.704;23.384;2022-10-17T04:07:12;4.03;;;3.13;;
4616;SDS011;2321;42.704;23.384;2022-10-17T04:09:39;1.70;;;1.63;;
4616;SDS011;2321;42.704;23.384;2022-10-17T04:12:06;4.23;;;3.87;;
4616;SDS011;2321;42.704;23.384;2022-10-17T04:14:35;3.83;;;3.40;;
4616;SDS011;2321;42.704;23.384;2022-10-17T04:17:02;4.00;;;3.70;;
4616;SDS011;2321;42.704;23.384;2022-10-17T04:19:29;4.67;;;4.27;;
4616;SDS011;2321;42.704;23.384;2022-10-17T04:21:56;6.83;;;4.43;;
4616;SDS011;2321;42.704;23.384;2022-10-17T04:24:23;12.10;;;5.77;;
4616;SDS011;2321;42.704;23.384;2022-10-17T04:26:50;11.83;;;4.97;;
4616;SDS011;2321;42.704;23.384;2022-10-17T04:29:17;5.07;;;4.73;;
4616;SDS011;2321;42.704;23.384;2022-10-17T04:31:45;4.83;;;4.43;;
4616;SDS011;2321;42.704;23.384;2022-10-17T04:34:13;11.30;;;2.73;;
4616;SDS011;2321;42.704;23.384;2022-10-17T04:36:40;3.07;;;2.90;;
4616;SDS011;2321;42.704;23.384;2022-10-17T04:39:07;5.30;;;4.37;;
4616;SDS011;2321;42.704;23.384;2022-10-17T04:41:34;8.03;;;6.53;;
4616;SDS011;2321;42.704;23.384;2022-10-17T04:44:01;4.90;;;4.50;;
4616;SDS011;2321;42.704;23.384;2022-10-17T04:46:28;9.87;;;7.20;;
4616;SDS011;2321;42.704;23.384;2022-10-17T04:48:56;8.97;;;5.80;;
4616;SDS011;2321;42.704;23.384;2022-10-17T04:51:23;7.80;;;5.83;;
4616;SDS011;2321;42.704;23.384;2022-10-17T04:53:50;3.50;;;3.00;;
4616;SDS011;2321;42.704;23.384;2022-10-17T04:56:17;11.07;;;5.60;;
4616;SDS011;2321;42.704;23.384;2022-10-17T04:58:46;7.80;;;5.00;;
4616;SDS011;2321;42.704;23.384;2022-10-17T05:01:13;24.57;;;5.83;;
4616;SDS011;2321;42.704;23.384;2022-10-17T05:03:41;4.57;;;4.17;;
4616;SDS011;2321;42.704;23.384;2022-10-17T05:06:11;3.50;;;3.20;;
4616;SDS011;2321;42.704;23.384;2022-10-17T05:08:39;8.80;;;4.33;;
4616;SDS011;2321;42.704;23.384;2022-10-17T05:11:13;3.83;;;3.30;;
4616;SDS011;2321;42.704;23.384;2022-10-17T05:13:42;3.50;;;3.20;;
4616;SDS011;2321;42.704;23.384;2022-10-17T05:16:09;14.20;;;4.47;;
4616;SDS011;2321;42.704;23.384;2022-10-17T05:18:36;6.07;;;3.83;;
4616;SDS011;2321;42.704;23.384;2022-10-17T05:21:03;3.43;;;3.23;;
4616;SDS011;2321;42.704;23.384;2022-10-17T05:23:32;5.87;;;5.37;;
4616;SDS011;2321;42.704;23.384;2022-10-17T05:25:59;7.67;;;5.80;;
4616;SDS011;2321;42.704;23.384;2022-10-17T05:28:26;5.60;;;3.27;;
4616;SDS011;2321;42.704;23.384;2022-10-17T05:30:53;4.73;;;3.93;;
4616;SDS011;2321;42.704;23.384;2022-10-17T05:33:21;3.97;;;3.37;;
4616;SDS011;2321;42.704;23.384;2022-10-17T05:35:48;2.87;;;2.73;;
4616;SDS011;2321;42.704;23.384;2022-10-17T05:38:15;4.90;;;3.70;;
4616;SDS011;2321;42.704;23.384;2022-10-17T05:40:43;4.60;;;4.30;;
4616;SDS011;2321;42.704;23.384;2022-10-17T05:43:10;2.23;;;2.03;;
4616;SDS011;2321;42.704;23.384;2022-10-17T05:45:38;2.83;;;2.63;;
4616;SDS011;2321;42.704;23.384;2022-10-17T05:48:05;6.53;;;4.90;;
4616;SDS011;2321;42.704;23.384;2022-10-17T05:50:33;2.93;;;2.40;;
4616;SDS011;2321;42.704;23.384;2022-10-17T05:53:00;3.83;;;3.43;;
4616;SDS011;2321;42.704;23.384;2022-10-17T05:55:27;3.93;;;3.63;;
4616;SDS011;2321;42.704;23.384;2022-10-17T05:57:55;5.50;;;3.00;;
4616;SDS011;2321;42.704;23.384;2022-10-17T06:00:22;2.80;;;2.60;;
4616;SDS011;2321;42.704;23.384;2022-10-17T06:02:49;11.47;;;4.53;;
4616;SDS011;2321;42.704;23.384;2022-10-17T06:05:16;4.57;;;4.17;;
4616;SDS011;2321;42.704;23.384;2022-10-17T06:07:43;6.50;;;2.90;;
4616;SDS011;2321;42.704;23.384;2022-10-17T06:10:10;4.30;;;4.00;;
4616;SDS011;2321;42.704;23.384;2022-10-17T06:12:39;9.33;;;4.13;;
4616;SDS011;2321;42.704;23.384;2022-10-17T06:15:08;4.27;;;3.97;;
4616;SDS011;2321;42.704;23.384;2022-10-17T06:17:35;5.23;;;4.40;;
4616;SDS011;2321;42.704;23.384;2022-10-17T06:20:02;18.80;;;9.60;;
4616;SDS011;2321;42.704;23.384;2022-10-17T06:22:30;4.80;;;4.30;;
4616;SDS011;2321;42.704;23.384;2022-10-17T06:24:57;4.13;;;3.80;;
4616;SDS011;2321;42.704;23.384;2022-10-17T06:27:24;4.40;;;4.03;;
4616;SDS011;2321;42.704;23.384;2022-10-17T06:29:51;23.50;;;10.90;;
4616;SDS011;2321;42.704;23.384;2022-10-17T06:32:19;32.50;;;19.30;;
4616;SDS011;2321;42.704;23.384;2022-10-17T06:34:46;5.53;;;5.03;;
4616;SDS011;2321;42.704;23.384;2022-10-17T06:37:13;6.30;;;4.23;;
4616;SDS011;2321;42.704;23.384;2022-10-17T06:39:40;4.50;;;3.53;;
4616;SDS011;2321;42.704;23.384;2022-10-17T06:42:07;7.23;;;6.53;;
4616;SDS011;2321;42.704;23.384;2022-10-17T06:44:34;10.77;;;7.70;;
4616;SDS011;2321;42.704;23.384;2022-10-17T06:47:01;5.23;;;4.83;;
4616;SDS011;2321;42.704;23.384;2022-10-17T06:49:29;12.60;;;5.10;;
4616;SDS011;2321;42.704;23.384;2022-10-17T06:51:58;4.50;;;4.20;;
4616;SDS011;2321;42.704;23.384;2022-10-17T06:54:25;7.63;;;5.97;;
4616;SDS011;2321;42.704;23.384;2022-10-17T06:56:53;5.80;;;5.07;;
4616;SDS011;2321;42.704;23.384;2022-10-17T06:59:20;29.70;;;4.13;;
4616;SDS011;2321;42.704;23.384;2022-10-17T07:01:47;7.23;;;4.90;;
4616;SDS011;2321;42.704;23.384;2022-10-17T07:04:14;4.23;;;3.90;;
4616;SDS011;2321;42.704;23.384;2022-10-17T07:06:42;4.83;;;4.53;;
4616;SDS011;2321;42.704;23.384;2022-10-17T07:09:09;9.83;;;5.40;;
4616;SDS011;2321;42.704;23.384;2022-10-17T07:11:36;16.57;;;6.97;;
4616;SDS011;2321;42.704;23.384;2022-10-17T07:14:04;6.93;;;4.90;;
4616;SDS011;2321;42.704;23.384;2022-10-17T07:16:32;5.90;;;3.50;;
4616;SDS011;2321;42.704;23.384;2022-10-17T07:18:59;8.13;;;5.50;;
4616;SDS011;2321;42.704;23.384;2022-10-17T07:21:26;15.73;;;6.50;;
4616;SDS011;2321;42.704;23.384;2022-10-17T07:23:54;21.57;;;4.67;;
4616;SDS011;2321;42.704;23.384;2022-10-17T07:26:21;7.60;;;5.87;;
4616;SDS011;2321;42.704;23.384;2022-10-17T07:28:50;6.70;;;6.10;;
4616;SDS011;2321;42.704;23.384;2022-10-17T07:31:19;8.90;;;5.47;;
4616;SDS011;2321;42.704;23.384;2022-10-17T07:33:47;6.93;;;6.33;;
4616;SDS011;2321;42.704;23.384;2022-10-17T07:36:15;4.77;;;4.47;;
4616;SDS011;2321;42.704;23.384;2022-10-17T07:38:42;8.00;;;6.20;;
4616;SDS011;2321;42.704;23.384;2022-10-17T07:41:11;7.20;;;6.10;;
4616;SDS011;2321;42.704;23.384;2022-10-17T07:43:38;10.03;;;5.57;;
4616;SDS011;2321;42.704;23.384;2022-10-17T07:46:07;15.77;;;5.27;;
4616;SDS011;2321;42.704;23.384;2022-10-17T07:48:35;10.10;;;6.07;;
4616;SDS011;2321;42.704;23.384;2022-10-17T07:51:02;15.63;;;5.87;;
4616;SDS011;2321;42.704;23.384;2022-10-17T07:53:31;12.97;;;10.60;;
4616;SDS011;2321;42.704;23.384;2022-10-17T07:56:02;11.20;;;6.27;;
4616;SDS011;2321;42.704;23.384;2022-10-17T07:58:32;12.57;;;6.33;;
4616;SDS011;2321;42.704;23.384;2022-10-17T08:01:00;12.40;;;7.60;;
4616;SDS011;2321;42.704;23.384;2022-10-17T08:03:27;10.03;;;6.23;;
4616;SDS011;2321;42.704;23.384;2022-10-17T08:05:56;12.03;;;7.00;;
4616;SDS011;2321;42.704;23.384;2022-10-17T08:08:23;10.30;;;5.40;;
4616;SDS011;2321;42.704;23.384;2022-10-17T08:10:51;8.27;;;6.23;;
4616;SDS011;2321;42.704;23.384;2022-10-17T08:13:18;18.87;;;5.63;;
4616;SDS011;2321;42.704;23.384;2022-10-17T08:15:46;11.00;;;6.97;;
4616;SDS011;2321;42.704;23.384;2022-10-17T08:18:13;9.03;;;5.63;;
4616;SDS011;2321;42.704;23.384;2022-10-17T08:20:41;7.87;;;5.43;;
4616;SDS011;2321;42.704;23.384;2022-10-17T08:23:08;11.17;;;7.27;;
4616;SDS011;2321;42.704;23.384;2022-10-17T08:25:36;10.87;;;6.77;;
4616;SDS011;2321;42.704;23.384;2022-10-17T08:28:04;26.63;;;7.83;;
4616;SDS011;2321;42.704;23.384;2022-10-17T08:30:31;11.07;;;7.13;;
4616;SDS011;2321;42.704;23.384;2022-10-17T08:32:59;11.23;;;6.40;;
4616;SDS011;2321;42.704;23.384;2022-10-17T08:35:26;11.63;;;6.37;;
4616;SDS011;2321;42.704;23.384;2022-10-17T08:37:53;16.67;;;7.17;;
4616;SDS011;2321;42.704;23.384;2022-10-17T08:40:21;7.93;;;6.10;;
4616;SDS011;2321;42.704;23.384;2022-10-17T08:45:48;10.60;;;6.93;;
4616;SDS011;2321;42.704;23.384;2022-10-17T08:48:20;15.97;;;8.27;;
4616;SDS011;2321;42.704;23.384;2022-10-17T08:50:51;8.07;;;5.63;;
4616;SDS011;2321;42.704;23.384;2022-10-17T08:53:21;10.40;;;5.53;;
4616;SDS011;2321;42.704;23.384;2022-10-17T08:55:54;6.83;;;4.93;;
4616;SDS011;2321;42.704;23.384;2022-10-17T08:58:22;6.03;;;4.90;;
4616;SDS011;2321;42.704;23.384;2022-10-17T09:00:54;5.37;;;4.20;;
4616;SDS011;2321;42.704;23.384;2022-10-17T09:03:37;7.77;;;4.90;;
4616;SDS011;2321;42.704;23.384;2022-10-17T09:06:17;10.00;;;4.73;;
4616;SDS011;2321;42.704;23.384;2022-10-17T09:08:53;4.10;;;3.73;;
4616;SDS011;2321;42.704;23.384;2022-10-17T09:11:34;5.37;;;4.43;;
4616;SDS011;2321;42.704;23.384;2022-10-17T09:14:14;2.83;;;2.53;;
4616;SDS011;2321;42.704;23.384;2022-10-17T09:16:54;4.57;;;3.87;;
4616;SDS011;2321;42.704;23.384;2022-10-17T09:19:34;4.17;;;3.30;;
4616;SDS011;2321;42.704;23.384;2022-10-17T09:22:05;8.07;;;4.10;;
4616;SDS011;2321;42.704;23.384;2022-10-17T09:24:38;4.27;;;3.70;;
4616;SDS011;2321;42.704;23.384;2022-10-17T09:27:15;6.33;;;4.70;;
4616;SDS011;2321;42.704;23.384;2022-10-17T09:29:47;3.30;;;2.47;;
4616;SDS011;2321;42.704;23.384;2022-10-17T09:32:20;2.20;;;2.10;;
4616;SDS011;2321;42.704;23.384;2022-10-17T09:34:51;2.60;;;2.40;;
4616;SDS011;2321;42.704;23.384;2022-10-17T09:37:21;4.83;;;2.37;;
4616;SDS011;2321;42.704;23.384;2022-10-17T09:39:55;3.90;;;2.60;;
4616;SDS011;2321;42.704;23.384;2022-10-17T09:42:22;3.50;;;3.20;;
4616;SDS011;2321;42.704;23.384;2022-10-17T09:44:54;4.37;;;3.10;;
4616;SDS011;2321;42.704;23.384;2022-10-17T09:47:30;5.20;;;2.43;;
4616;SDS011;2321;42.704;23.384;2022-10-17T09:50:19;6.10;;;2.50;;
4616;SDS011;2321;42.704;23.384;2022-10-17T09:52:48;2.53;;;2.33;;
4616;SDS011;2321;42.704;23.384;2022-10-17T09:55:16;7.60;;;2.00;;
4616;SDS011;2321;42.704;23.384;2022-10-17T09:57:50;2.00;;;1.93;;
4616;SDS011;2321;42.704;23.384;2022-10-17T10:00:19;1.83;;;1.73;;
4616;SDS011;2321;42.704;23.384;2022-10-17T10:02:47;2.40;;;1.30;;
4616;SDS011;2321;42.704;23.384;2022-10-17T10:05:16;1.63;;;1.40;;
4616;SDS011;2321;42.704;23.384;2022-10-17T10:07:57;1.53;;;1.43;;
4616;SDS011;2321;42.704;23.384;2022-10-17T10:10:28;2.00;;;1.80;;
4616;SDS011;2321;42.704;23.384;2022-10-17T10:15:45;1.40;;;1.30;;
4616;SDS011;2321;42.704;23.384;2022-10-17T10:18:27;1.50;;;1.40;;
4616;SDS011;2321;42.704;23.384;2022-10-17T10:21:03;1.07;;;1.07;;
4616;SDS011;2321;42.704;23.384;2022-10-17T10:23:35;2.50;;;1.30;;
4616;SDS011;2321;42.704;23.384;2022-10-17T10:26:10;1.30;;;1.23;;
4616;SDS011;2321;42.704;23.384;2022-10-17T10:28:37;1.50;;;1.40;;
4616;SDS011;2321;42.704;23.384;2022-10-17T10:31:06;1.37;;;1.37;;
4616;SDS011;2321;42.704;23.384;2022-10-17T10:33:35;1.90;;;1.80;;
4616;SDS011;2321;42.704;23.384;2022-10-17T10:36:07;1.27;;;1.27;;
4616;SDS011;2321;42.704;23.384;2022-10-17T10:38:35;2.30;;;2.20;;
4616;SDS011;2321;42.704;23.384;2022-10-17T10:41:07;2.57;;;1.50;;
4616;SDS011;2321;42.704;23.384;2022-10-17T10:43:36;1.40;;;1.40;;
4616;SDS011;2321;42.704;23.384;2022-10-17T10:46:14;1.53;;;1.53;;
4616;SDS011;2321;42.704;23.384;2022-10-17T10:48:50;1.30;;;1.30;;
4616;SDS011;2321;42.704;23.384;2022-10-17T10:51:22;1.30;;;1.30;;
4616;SDS011;2321;42.704;23.384;2022-10-17T10:53:54;1.63;;;1.30;;
4616;SDS011;2321;42.704;23.384;2022-10-17T10:56:28;1.70;;;1.50;;
4616;SDS011;2321;42.704;23.384;2022-10-17T10:58:59;1.60;;;1.30;;
4616;SDS011;2321;42.704;23.384;2022-10-17T11:01:31;1.77;;;1.67;;
4616;SDS011;2321;42.704;23.384;2022-10-17T11:04:12;1.33;;;1.23;;
4616;SDS011;2321;42.704;23.384;2022-10-17T11:06:49;2.00;;;1.60;;
4616;SDS011;2321;42.704;23.384;2022-10-17T11:09:22;4.63;;;2.57;;
4616;SDS011;2321;42.704;23.384;2022-10-17T11:11:57;3.23;;;1.50;;
4616;SDS011;2321;42.704;23.384;2022-10-17T11:14:30;1.53;;;1.50;;
4616;SDS011;2321;42.704;23.384;2022-10-17T11:17:07;1.80;;;1.70;;
4616;SDS011;2321;42.704;23.384;2022-10-17T11:19:43;2.53;;;1.50;;
4616;SDS011;2321;42.704;23.384;2022-10-17T11:22:18;1.70;;;1.60;;
4616;SDS011;2321;42.704;23.384;2022-10-17T11:24:55;2.40;;;1.90;;
4616;SDS011;2321;42.704;23.384;2022-10-17T11:27:25;2.87;;;1.90;;
4616;SDS011;2321;42.704;23.384;2022-10-17T11:29:54;1.90;;;1.80;;
4616;SDS011;2321;42.704;23.384;2022-10-17T11:32:23;2.70;;;2.27;;
4616;SDS011;2321;42.704;23.384;2022-10-17T11:34:56;2.00;;;1.80;;
4616;SDS011;2321;42.704;23.384;2022-10-17T11:37:30;2.40;;;1.57;;
4616;SDS011;2321;42.704;23.384;2022-10-17T11:40:02;1.63;;;1.63;;
4616;SDS011;2321;42.704;23.384;2022-10-17T11:42:50;1.50;;;1.40;;
4616;SDS011;2321;42.704;23.384;2022-10-17T11:45:22;2.23;;;2.03;;
4616;SDS011;2321;42.704;23.384;2022-10-17T11:47:52;1.40;;;1.30;;
4616;SDS011;2321;42.704;23.384;2022-10-17T11:50:25;1.30;;;1.30;;
4616;SDS011;2321;42.704;23.384;2022-10-17T11:52:57;3.57;;;2.10;;
4616;SDS011;2321;42.704;23.384;2022-10-17T11:55:27;2.00;;;1.90;;
4616;SDS011;2321;42.704;23.384;2022-10-17T11:57:59;2.47;;;2.27;;
4616;SDS011;2321;42.704;23.384;2022-10-17T12:00:40;6.03;;;3.27;;
4616;SDS011;2321;42.704;23.384;2022-10-17T12:03:18;4.17;;;3.20;;
4616;SDS011;2321;42.704;23.384;2022-10-17T12:05:56;4.20;;;2.80;;
4616;SDS011;2321;42.704;23.384;2022-10-17T12:08:32;1.87;;;1.77;;
4616;SDS011;2321;42.704;23.384;2022-10-17T12:11:07;15.43;;;1.60;;
4616;SDS011;2321;42.704;23.384;2022-10-17T12:13:49;1.67;;;1.57;;
4616;SDS011;2321;42.704;23.384;2022-10-17T12:19:19;1.40;;;1.40;;
4616;SDS011;2321;42.704;23.384;2022-10-17T12:21:56;3.57;;;3.03;;
4616;SDS011;2321;42.704;23.384;2022-10-17T12:24:30;1.60;;;1.50;;
4616;SDS011;2321;42.704;23.384;2022-10-17T12:30:03;1.43;;;1.43;;
4616;SDS011;2321;42.704;23.384;2022-10-17T12:32:51;1.60;;;1.60;;
4616;SDS011;2321;42.704;23.384;2022-10-17T12:35:22;2.97;;;1.97;;
4616;SDS011;2321;42.704;23.384;2022-10-17T12:38:13;2.00;;;1.90;;
4616;SDS011;2321;42.704;23.384;2022-10-17T12:52:20;1.07;;;1.07;;
4616;SDS011;2321;42.704;23.384;2022-10-17T12:54:56;3.63;;;1.80;;
4616;SDS011;2321;42.704;23.384;2022-10-17T12:57:29;2.13;;;1.93;;
4616;SDS011;2321;42.704;23.384;2022-10-17T13:00:00;1.90;;;1.80;;
4616;SDS011;2321;42.704;23.384;2022-10-17T13:02:29;1.83;;;1.77;;
4616;SDS011;2321;42.704;23.384;2022-10-17T13:04:58;2.43;;;2.23;;
4616;SDS011;2321;42.704;23.384;2022-10-17T13:07:32;2.30;;;2.10;;
4616;SDS011;2321;42.704;23.384;2022-10-17T13:09:59;1.60;;;1.50;;
4616;SDS011;2321;42.704;23.384;2022-10-17T13:12:31;3.63;;;1.90;;
4616;SDS011;2321;42.704;23.384;2022-10-17T13:15:02;1.83;;;1.60;;
4616;SDS011;2321;42.704;23.384;2022-10-17T13:17:32;1.40;;;1.40;;
4616;SDS011;2321;42.704;23.384;2022-10-17T13:19:59;1.87;;;1.77;;
4616;SDS011;2321;42.704;23.384;2022-10-17T13:22:27;2.13;;;1.40;;
4616;SDS011;2321;42.704;23.384;2022-10-17T13:25:04;1.67;;;1.60;;
4616;SDS011;2321;42.704;23.384;2022-10-17T13:27:34;1.27;;;1.27;;
4616;SDS011;2321;42.704;23.384;2022-10-17T13:30:19;1.67;;;1.50;;
4616;SDS011;2321;42.704;23.384;2022-10-17T13:32:46;50.20;;;14.17;;
4616;SDS011;2321;42.704;23.384;2022-10-17T13:35:14;7.20;;;2.80;;
4616;SDS011;2321;42.704;23.384;2022-10-17T13:37:42;3.70;;;2.33;;
4616;SDS011;2321;42.704;23.384;2022-10-17T13:40:15;1.87;;;1.77;;
4616;SDS011;2321;42.704;23.384;2022-10-17T13:42:44;2.47;;;2.27;;
4616;SDS011;2321;42.704;23.384;2022-10-17T13:45:15;2.10;;;2.00;;
4616;SDS011;2321;42.704;23.384;2022-10-17T13:47:43;5.67;;;2.60;;
4616;SDS011;2321;42.704;23.384;2022-10-17T13:50:14;18.07;;;3.07;;
4616;SDS011;2321;42.704;23.384;2022-10-17T13:52:47;3.70;;;2.03;;
4616;SDS011;2321;42.704;23.384;2022-10-17T13:55:15;2.77;;;2.50;;
4616;SDS011;2321;42.704;23.384;2022-10-17T13:57:45;7.03;;;2.60;;
4616;SDS011;2321;42.704;23.384;2022-10-17T14:00:15;3.97;;;2.30;;
4616;SDS011;2321;42.704;23.384;2022-10-17T14:02:43;1.60;;;1.60;;
4616;SDS011;2321;42.704;23.384;2022-10-17T14:05:11;2.97;;;1.83;;
4616;SDS011;2321;42.704;23.384;2022-10-17T14:07:39;3.03;;;2.10;;
4616;SDS011;2321;42.704;23.384;2022-10-17T14:10:16;1.80;;;1.70;;
4616;SDS011;2321;42.704;23.384;2022-10-17T14:12:47;3.93;;;2.13;;
4616;SDS011;2321;42.704;23.384;2022-10-17T14:15:15;2.33;;;1.80;;
4616;SDS011;2321;42.704;23.384;2022-10-17T14:17:41;2.00;;;1.90;;
4616;SDS011;2321;42.704;23.384;2022-10-17T14:20:15;1.57;;;1.50;;
4616;SDS011;2321;42.704;23.384;2022-10-17T14:22:44;1.33;;;1.33;;
4616;SDS011;2321;42.704;23.384;2022-10-17T14:25:28;1.87;;;1.80;;
4616;SDS011;2321;42.704;23.384;2022-10-17T14:28:01;1.73;;;1.70;;
4616;SDS011;2321;42.704;23.384;2022-10-17T14:30:39;1.73;;;1.63;;
4616;SDS011;2321;42.704;23.384;2022-10-17T14:33:11;3.77;;;2.60;;
4616;SDS011;2321;42.704;23.384;2022-10-17T14:35:51;6.23;;;4.30;;
4616;SDS011;2321;42.704;23.384;2022-10-17T14:38:18;2.30;;;2.10;;
4616;SDS011;2321;42.704;23.384;2022-10-17T14:40:48;2.37;;;2.03;;
4616;SDS011;2321;42.704;23.384;2022-10-17T14:43:18;6.53;;;4.30;;
4616;SDS011;2321;42.704;23.384;2022-10-17T14:45:47;4.47;;;3.97;;
4616;SDS011;2321;42.704;23.384;2022-10-17T14:48:15;15.23;;;4.40;;
4616;SDS011;2321;42.704;23.384;2022-10-17T14:53:32;5.57;;;4.10;;
4616;SDS011;2321;42.704;23.384;2022-10-17T14:56:00;7.47;;;3.07;;
4616;SDS011;2321;42.704;23.384;2022-10-17T14:58:29;3.53;;;3.03;;
4616;SDS011;2321;42.704;23.384;2022-10-17T15:00:58;6.03;;;2.93;;
4616;SDS011;2321;42.704;23.384;2022-10-17T15:03:26;3.07;;;2.57;;
4616;SDS011;2321;42.704;23.384;2022-10-17T15:05:53;3.80;;;2.97;;
4616;SDS011;2321;42.704;23.384;2022-10-17T15:08:21;4.73;;;2.20;;
4616;SDS011;2321;42.704;23.384;2022-10-17T15:10:49;2.53;;;2.43;;
4616;SDS011;2321;42.704;23.384;2022-10-17T15:13:17;5.27;;;2.63;;
4616;SDS011;2321;42.704;23.384;2022-10-17T15:15:45;4.60;;;3.57;;
4616;SDS011;2321;42.704;23.384;2022-10-17T15:18:16;4.20;;;3.10;;
4616;SDS011;2321;42.704;23.384;2022-10-17T15:20:43;4.77;;;3.63;;
4616;SDS011;2321;42.704;23.384;2022-10-17T15:23:09;6.77;;;4.07;;
4616;SDS011;2321;42.704;23.384;2022-10-17T15:25:36;9.17;;;4.27;;
4616;SDS011;2321;42.704;23.384;2022-10-17T15:28:04;10.50;;;4.93;;
4616;SDS011;2321;42.704;23.384;2022-10-17T15:30:31;5.17;;;4.43;;
4616;SDS011;2321;42.704;23.384;2022-10-17T15:33:02;4.23;;;2.70;;
4616;SDS011;2321;42.704;23.384;2022-10-17T15:35:29;6.10;;;4.10;;
4616;SDS011;2321;42.704;23.384;2022-10-17T15:37:56;4.13;;;3.53;;
4616;SDS011;2321;42.704;23.384;2022-10-17T15:40:23;4.73;;;3.90;;
4616;SDS011;2321;42.704;23.384;2022-10-17T15:42:52;10.03;;;5.10;;
4616;SDS011;2321;42.704;23.384;2022-10-17T15:45:20;9.67;;;5.33;;